Aeroporto :
LOGIN :

Iscrizione | Disclaimer

   EN    FR    IT 

 










Sommario :    VFR   VFR Marginale   IFR   IFR Intensivo   IFR Molto Intensivo
Visibilità : 
Base nubi : 
>= 8 km
>= 3000ft
5 / 8 km
1000 / 3000 ft
1500m / 5 km
500 / 1000 ft
800 / 1500m
200 / 500 ft
< 800m
< 200 ft
Simboli :   Temporali  Nebbia  Neve Forte  Precipitazioni Forti  Vento > 20 kt
SIGMETs :   Varie  Temporali  Ghiacco  Turbolenza  Onda orograficha  Ceneri Vulcaniche






- Altitudine del aeroporto : 433 ft
- Codice IATA : CCF


LFMK - Carcassonne

ULTIMO METAR :
  • 281300Z AUTO 30012KT 9999 -RADZ BKN023 OVC028 10/08 Q1008 TEMPO 4000 -SHRA BKN014 SCT025TCU

METARs OBSOLETI :
  • 281230Z AUTO 29008KT 9999 -RA FEW021 SCT027 BKN032 11/09 Q1008 TEMPO 4000 -SHRA BKN014 SCT025TCU
  • 281200Z AUTO 30009KT 9999 -RA FEW023/// BKN029/// BKN036/// //////TCU 10/09 Q1008 TEMPO 28015G25KT 4000 -SHRA BKN014 SCT025TCU
  • 281130Z AUTO 31017KT 280V340 9999 -RA FEW014/// BKN026/// BKN032/// //////CB 12/08 Q1008 TEMPO 28015G25KT 4000 -SHRA BKN014 SCT025TCU
  • 281100Z AUTO 28020G31KT 240V300 9999 SCT028/// BKN034/// BKN040/// ///TCU 14/08 Q1008 TEMPO 4000 -SHRA BKN014 SCT025TCU
  • 281030Z AUTO 27020G32KT 240V300 9999 BKN025/// BKN030/// BKN039/// //////CB 13/09 Q1008 TEMPO 4000 -SHRA BKN014 SCT025TCU
  • 281000Z AUTO 27018KT 240V300 9999 BKN024 OVC052 13/08 Q1008 TEMPO 4000 -SHRA BKN014 SCT025TCU BECMG 28015G25KT
  • 280930Z AUTO 27017G27KT 9999 BKN021 13/09 Q1008 TEMPO 4000 -SHRA BKN014 SCT025TCU
  • 280900Z AUTO 27017KT 9999 BKN019 BKN024 12/09 Q1008 TEMPO 4000 -SHRA BKN014 SCT025TCU BECMG 28015G25KT
  • 280830Z AUTO 28016KT 9999 BKN020 OVC026 11/09 Q1008 BECMG 29015G25KT

TAF TAF LFMK
Valido dal 28 a 09 ore il 29 a 09 ore UTC


280800Z 2809/2909 28015G25KT 9999 BKN020
TEMPO 2809/2815 4000 -SHRA BKN014 SCT025TCU
BECMG 2813/2815 28012KT
BECMG 2900/2902 VRB03KT CAVOK
BECMG 2904/2906 3000 BR
TEMPO 2906/2909 0600 FG VV///



MetMap, La meteo Aeronautica in un colpo d'occhio ! - Copyright ORBIFLY Dicembre 2007 - Disclaimer

ORBIFLY MET'MAP TEAM :

Programmazione e sviluppo : Alexandra Zaïnal
Concezione : Baudouin d'Aumeries
Supporto tecnico e logistico : Manuel Goepfert
Aiuto : Marc-Olivier Méhu
Aiuto per la traduzione : Arnaldo La Scala




FONTI E CREDITI :

   NOAA